createdAt,value
2022-09-06T00:00:07.435Z,99927.44
2022-09-06T00:01:45.452Z,99930.16
2022-09-06T00:03:17.801Z,99931.91
2022-09-06T00:04:51.367Z,99933.50
2022-09-06T00:06:24.887Z,99924.66
2022-09-06T00:08:00.102Z,99925.66
2022-09-06T00:09:33.272Z,99933.50
2022-09-06T00:11:07.157Z,99933.63
2022-09-06T00:12:41.379Z,99933.50
2022-09-06T00:14:14.660Z,99928.06
2022-09-06T00:15:47.963Z,99915.66
2022-09-06T00:17:20.513Z,99922.88
2022-09-06T00:18:55.549Z,99921.84
2022-09-06T00:20:29.012Z,99924.47
2022-09-06T00:22:02.416Z,99917.47
2022-09-06T00:23:35.741Z,99921.84
2022-09-06T00:25:09.633Z,99924.66
2022-09-06T00:26:42.853Z,99919.44
2022-09-06T00:28:17.666Z,99922.25
2022-09-06T00:29:49.952Z,99915.19
2022-09-06T00:31:25.930Z,99920.50
2022-09-06T00:32:59.398Z,99925.84
2022-09-06T00:34:32.965Z,99923.13
2022-09-06T00:36:06.766Z,99921.41
2022-09-06T00:37:39.992Z,99923.19
2022-09-06T00:39:13.204Z,99929.31
2022-09-06T00:40:46.397Z,99931.75
2022-09-06T00:42:18.862Z,99925.47
2022-09-06T00:43:53.692Z,99922.81
2022-09-06T00:45:28.191Z,99917.41
2022-09-06T00:47:01.579Z,99921.84
2022-09-06T00:48:35.628Z,99917.53
2022-09-06T00:50:09.588Z,99919.50
2022-09-06T00:51:43.694Z,99927.09
2022-09-06T00:53:17.699Z,99918.56
2022-09-06T00:54:52.484Z,99920.56
2022-09-06T00:56:26.523Z,99924.56
2022-09-06T00:57:59.820Z,99921.88
2022-09-06T00:59:37.250Z,99933.47
2022-09-06T01:01:11.029Z,99927.16
2022-09-06T01:02:44.752Z,99926.28
2022-09-06T01:04:17.198Z,99916.69
2022-09-06T01:06:00.026Z,99919.63
2022-09-06T01:07:51.129Z,99922.59
2022-09-06T01:09:38.816Z,99913.06
2022-09-06T01:11:40.707Z,99920.25
2022-09-06T01:13:29.831Z,99923.06
2022-09-06T01:15:16.452Z,99925.13
2022-09-06T01:16:55.392Z,99914.53
2022-09-06T01:18:48.946Z,99920.69
2022-09-06T01:20:42.971Z,99912.88
2022-09-06T01:22:35.528Z,99916.97
2022-09-06T01:24:45.637Z,99919.59
2022-09-06T01:26:55.423Z,99922.31
2022-09-06T01:28:36.690Z,99916.97
2022-09-06T01:30:13.056Z,99927.72
2022-09-06T01:31:52.177Z,99918.03
2022-09-06T01:33:33.593Z,99922.69
2022-09-06T01:35:13.995Z,99909.34
2022-09-06T01:37:08.903Z,99925.97
2022-09-06T01:38:43.413Z,99923.53
2022-09-06T01:40:16.950Z,99927.13
2022-09-06T01:41:51.080Z,99917.44
2022-09-06T01:43:27.800Z,99919.97
2022-09-06T01:45:02.773Z,99911.22
2022-09-06T01:46:45.998Z,99910.44
2022-09-06T01:48:31.452Z,99906.97
2022-09-06T01:50:28.583Z,99909.56
2022-09-06T01:52:14.777Z,99911.28
2022-09-06T01:54:02.297Z,99910.38
2022-09-06T01:55:44.903Z,99911.41
2022-09-06T01:57:30.622Z,99901.81
2022-09-06T01:59:19.146Z,99904.63
2022-09-06T02:00:59.568Z,99901.25
2022-09-06T02:02:43.481Z,99898.84
2022-09-06T02:04:24.126Z,99892.63
2022-09-06T02:06:03.163Z,99903.13
2022-09-06T02:07:39.454Z,99897.81
2022-09-06T02:09:17.039Z,99892.50
2022-09-06T02:10:57.599Z,99895.09
2022-09-06T02:12:34.364Z,99904.84
2022-09-06T02:14:12.335Z,99894.34
2022-09-06T02:15:53.410Z,99890.88
2022-09-06T02:17:33.934Z,99892.72
2022-09-06T02:19:12.463Z,99889.25
2022-09-06T02:20:50.666Z,99890.88
2022-09-06T02:22:28.983Z,99885.47
2022-09-06T02:24:05.816Z,99885.44
2022-09-06T02:25:41.174Z,99885.44
2022-09-06T02:27:15.747Z,99886.25
2022-09-06T02:28:49.710Z,99886.91
2022-09-06T02:30:22.137Z,99887.03
2022-09-06T02:32:00.493Z,99888.78
2022-09-06T02:33:36.222Z,99890.47
2022-09-06T02:35:14.778Z,99891.34
2022-09-06T02:36:48.805Z,99892.13
2022-09-06T02:38:24.580Z,99888.69
2022-09-06T02:39:57.845Z,99890.56
2022-09-06T02:41:31.362Z,99892.50
2022-09-06T02:43:04.805Z,99896.19
2022-09-06T02:44:38.011Z,99891.13
2022-09-06T02:46:10.431Z,99905.19
2022-09-06T02:47:44.213Z,99889.13
2022-09-06T02:49:18.925Z,99893.47
2022-09-06T02:50:52.199Z,99904.97
2022-09-06T02:52:24.407Z,99901.38
2022-09-06T02:53:57.954Z,99904.09
2022-09-06T02:55:30.445Z,99903.34
2022-09-06T02:57:03.656Z,99907.06
2022-09-06T02:58:35.909Z,99905.34
2022-09-06T03:00:10.628Z,99911.53
2022-09-06T03:01:44.144Z,99906.44
2022-09-06T03:03:17.596Z,99911.75
2022-09-06T03:04:52.218Z,99903.84
2022-09-06T03:06:25.057Z,99915.34
2022-09-06T03:07:58.541Z,99912.94
2022-09-06T03:09:31.844Z,99908.56
2022-09-06T03:11:05.476Z,99909.59
2022-09-06T03:12:38.914Z,99909.59
2022-09-06T03:14:12.220Z,99911.44
2022-09-06T03:15:44.443Z,99907.91
2022-09-06T03:17:18.788Z,99904.63
2022-09-06T03:18:52.009Z,99911.66
2022-09-06T03:20:26.427Z,99907.22
2022-09-06T03:21:59.709Z,99901.16
2022-09-06T03:23:32.929Z,99903.81
2022-09-06T03:25:07.245Z,99910.03
2022-09-06T03:26:40.458Z,99904.75
2022-09-06T03:28:13.122Z,99913.63
2022-09-06T03:29:46.272Z,99912.69
2022-09-06T03:31:19.902Z,99915.31
2022-09-06T03:32:54.248Z,99912.69
2022-09-06T03:34:27.507Z,99896.19
2022-09-06T03:36:03.174Z,99908.22
2022-09-06T03:37:36.890Z,99916.97
2022-09-06T03:39:10.169Z,99907.97
2022-09-06T03:40:45.983Z,99914.78
2022-09-06T03:42:19.255Z,99915.63
2022-09-06T03:43:52.603Z,99916.28
2022-09-06T03:45:25.987Z,99919.78
2022-09-06T03:46:59.199Z,99915.34
2022-09-06T03:48:32.440Z,99916.13
2022-09-06T03:50:06.737Z,99919.66
2022-09-06T03:51:41.386Z,99923.22
2022-09-06T03:53:13.710Z,99925.03
2022-09-06T03:54:47.103Z,99932.13
2022-09-06T03:56:19.547Z,99924.97
2022-09-06T03:57:53.013Z,99928.38
2022-09-06T03:59:26.156Z,99929.09
2022-09-06T04:01:05.515Z,99935.19
2022-09-06T04:02:39.208Z,99927.94
2022-09-06T04:04:12.766Z,99930.59
2022-09-06T04:05:45.698Z,99930.31
2022-09-06T04:07:20.327Z,99914.38
2022-09-06T04:08:53.726Z,99930.09
2022-09-06T04:10:27.128Z,99929.34
2022-09-06T04:12:00.392Z,99936.38
2022-09-06T04:13:35.028Z,99938.19
2022-09-06T04:15:08.476Z,99939.97
2022-09-06T04:16:41.966Z,99942.63
2022-09-06T04:18:15.326Z,99936.53
2022-09-06T04:19:48.562Z,99946.91
2022-09-06T04:21:20.902Z,99945.19
2022-09-06T04:22:55.621Z,99944.94
2022-09-06T04:24:28.895Z,99940.38
2022-09-06T04:26:02.119Z,99948.16
2022-09-06T04:27:35.539Z,99927.69
2022-09-06T04:29:09.151Z,99942.34
2022-09-06T04:30:41.385Z,99951.06
2022-09-06T04:32:14.670Z,99945.56
2022-09-06T04:33:48.079Z,99940.03
2022-09-06T04:35:21.561Z,99931.97
2022-09-06T04:36:54.837Z,99944.13
2022-09-06T04:38:31.288Z,99944.00
2022-09-06T04:40:05.328Z,99945.28
2022-09-06T04:41:38.655Z,99937.19
2022-09-06T04:43:10.891Z,99941.44
2022-09-06T04:44:44.069Z,99943.88
2022-09-06T04:46:22.932Z,99948.91
2022-09-06T04:47:56.364Z,99948.72
2022-09-06T04:49:29.551Z,99951.22
2022-09-06T04:51:02.847Z,99948.56
2022-09-06T04:52:36.221Z,99949.34
2022-09-06T04:54:10.866Z,99952.75
2022-09-06T04:55:44.091Z,99938.31
2022-09-06T04:57:17.378Z,99942.69
2022-09-06T04:58:51.781Z,99944.41
2022-09-06T05:00:24.284Z,99947.09
2022-09-06T05:01:57.543Z,99939.84
2022-09-06T05:03:29.796Z,99940.44
2022-09-06T05:05:05.195Z,99935.69
2022-09-06T05:06:39.345Z,99935.69
2022-09-06T05:08:12.583Z,99933.22
2022-09-06T05:09:47.157Z,99931.38
2022-09-06T05:11:20.929Z,99927.78
2022-09-06T05:12:55.652Z,99926.63
2022-09-06T05:14:28.958Z,99932.66
2022-09-06T05:16:03.207Z,99933.38
2022-09-06T05:17:36.823Z,99934.00
2022-09-06T05:19:10.322Z,99931.91
2022-09-06T05:20:43.539Z,99936.94
2022-09-06T05:22:16.931Z,99928.69
2022-09-06T05:23:50.494Z,99932.41
2022-09-06T05:25:25.260Z,99938.75
2022-09-06T05:26:58.791Z,99932.84
2022-09-06T05:28:32.267Z,99928.09
2022-09-06T05:30:06.314Z,99930.09
2022-09-06T05:31:39.857Z,99931.25
2022-09-06T05:33:15.352Z,99916.50
2022-09-06T05:34:48.580Z,99929.75
2022-09-06T05:36:23.768Z,99927.28
2022-09-06T05:37:57.260Z,99932.47
2022-09-06T05:39:30.482Z,99931.06
2022-09-06T05:41:05.253Z,99933.91
2022-09-06T05:42:38.623Z,99926.06
2022-09-06T05:44:11.933Z,99918.28
2022-09-06T05:45:45.502Z,99915.13
2022-09-06T05:47:18.769Z,99915.72
2022-09-06T05:48:55.973Z,99911.19
2022-09-06T05:50:29.333Z,99916.13
2022-09-06T05:52:02.618Z,99915.38
2022-09-06T05:53:36.125Z,99915.97
2022-09-06T05:55:10.255Z,99909.75
2022-09-06T05:56:44.928Z,99900.44
2022-09-06T05:58:18.202Z,99898.66
2022-09-06T05:59:53.600Z,99895.09
2022-09-06T06:01:28.695Z,99895.19
2022-09-06T06:03:02.008Z,99898.72
2022-09-06T06:04:35.437Z,99895.56
2022-09-06T06:06:08.895Z,99894.09
2022-09-06T06:07:42.195Z,99891.13
2022-09-06T06:09:15.678Z,99904.06
2022-09-06T06:10:48.900Z,99891.81
2022-09-06T06:12:23.525Z,99893.00
2022-09-06T06:13:56.851Z,99889.00
2022-09-06T06:15:30.092Z,99891.22
2022-09-06T06:17:03.903Z,99894.66
2022-09-06T06:18:37.590Z,99889.28
2022-09-06T06:20:11.352Z,99879.91
2022-09-06T06:21:44.930Z,99880.44
2022-09-06T06:23:18.167Z,99880.81
2022-09-06T06:24:51.351Z,99870.81
2022-09-06T06:26:24.908Z,99881.06
2022-09-06T06:27:59.733Z,99890.16
2022-09-06T06:29:32.945Z,99895.59
2022-09-06T06:31:07.518Z,99891.94
2022-09-06T06:32:41.060Z,99888.31
2022-09-06T06:34:14.352Z,99889.00
2022-09-06T06:36:01.523Z,99900.47
2022-09-06T06:37:34.885Z,99899.34
2022-09-06T06:39:09.717Z,99893.81
2022-09-06T06:40:46.801Z,99892.44
2022-09-06T06:42:20.398Z,99890.06
2022-09-06T06:44:01.100Z,99893.97
2022-09-06T06:45:34.499Z,99900.53
2022-09-06T06:47:07.821Z,99895.34
2022-09-06T06:48:41.744Z,99892.88
2022-09-06T06:50:15.103Z,99895.00
2022-09-06T06:51:48.360Z,99889.81
2022-09-06T06:53:21.717Z,99891.53
2022-09-06T06:54:55.051Z,99895.78
2022-09-06T06:56:29.905Z,99890.50
2022-09-06T06:58:03.581Z,99884.41
2022-09-06T06:59:39.078Z,99890.94
2022-09-06T07:01:11.643Z,99900.22
2022-09-06T07:02:44.917Z,99899.19
2022-09-06T07:04:18.276Z,99887.41
2022-09-06T07:07:45.007Z,99890.50
2022-09-06T07:09:19.739Z,99886.47
2022-09-06T07:10:52.992Z,99877.84
2022-09-06T07:12:26.249Z,99885.34
2022-09-06T07:13:59.423Z,99884.94
2022-09-06T07:15:34.243Z,99882.84
2022-09-06T07:17:09.283Z,99888.75
2022-09-06T07:18:43.174Z,99889.53
2022-09-06T07:20:16.727Z,99889.13
2022-09-06T07:21:50.217Z,99886.25
2022-09-06T07:25:21.569Z,99880.28
2022-09-06T07:28:48.750Z,99892.16
2022-09-06T07:30:22.026Z,99893.28
2022-09-06T07:32:13.422Z,99896.31
2022-09-06T07:33:46.720Z,99891.84
2022-09-06T07:35:21.487Z,99892.41
2022-09-06T07:36:55.142Z,99889.28
2022-09-06T07:38:30.117Z,99888.50
2022-09-06T07:40:04.131Z,99873.66
2022-09-06T07:41:37.558Z,99874.91
2022-09-06T07:43:10.735Z,99877.25
2022-09-06T07:44:44.070Z,99881.59
2022-09-06T07:46:18.719Z,99874.41
2022-09-06T07:47:59.148Z,99884.88
2022-09-06T07:49:34.769Z,99878.28
2022-09-06T07:51:10.236Z,99886.00
2022-09-06T07:54:37.549Z,99864.03
2022-09-06T07:56:12.446Z,99871.53
2022-09-06T07:57:45.779Z,99871.34
2022-09-06T07:59:19.001Z,99864.59
2022-09-06T08:00:52.375Z,99861.06
2022-09-06T08:02:25.898Z,99867.72
2022-09-06T08:04:01.715Z,99861.88
2022-09-06T08:07:43.570Z,99863.09
2022-09-06T08:09:17.079Z,99850.13
2022-09-06T08:10:51.771Z,99857.59
2022-09-06T08:12:27.888Z,99841.19
2022-09-06T08:14:03.048Z,99844.50
2022-09-06T08:15:36.361Z,99834.84
2022-09-06T08:17:09.571Z,99856.47
2022-09-06T08:18:42.815Z,99839.34
2022-09-06T08:20:18.095Z,99854.09
2022-09-06T08:21:51.705Z,99844.53
2022-09-06T08:23:24.948Z,99841.69
2022-09-06T08:24:58.108Z,99854.53
2022-09-06T08:26:33.888Z,99846.09
2022-09-06T08:28:07.174Z,99847.69
2022-09-06T08:29:40.342Z,99849.50
2022-09-06T08:31:15.031Z,99845.03
2022-09-06T08:32:49.060Z,99838.53
2022-09-06T08:34:22.314Z,99834.97
2022-09-06T08:36:00.564Z,99834.22
2022-09-06T08:37:33.755Z,99837.06
2022-09-06T08:39:10.379Z,99836.94
2022-09-06T08:40:43.615Z,99827.59
2022-09-06T08:42:16.959Z,99818.03
2022-09-06T08:45:52.602Z,99822.22
2022-09-06T08:47:28.779Z,99819.00
2022-09-06T08:49:01.986Z,99822.91
2022-09-06T08:50:36.681Z,99809.91
2022-09-06T08:52:49.545Z,99810.63
2022-09-06T08:54:33.240Z,99809.63
2022-09-06T08:56:14.586Z,99808.47
2022-09-06T08:58:02.708Z,99804.53
2022-09-06T08:59:40.175Z,99800.34
2022-09-06T09:01:18.671Z,99803.28
2022-09-06T09:02:56.422Z,99802.25
2022-09-06T09:04:32.029Z,99798.72
2022-09-06T09:06:06.487Z,99794.41
2022-09-06T09:07:46.274Z,99795.91
2022-09-06T09:09:19.782Z,99787.91
2022-09-06T09:10:59.165Z,99795.88
2022-09-06T09:12:38.130Z,99798.81
2022-09-06T09:14:17.482Z,99792.44
2022-09-06T09:15:50.731Z,99793.91
2022-09-06T09:17:29.245Z,99780.41
2022-09-06T09:19:05.495Z,99789.25
2022-09-06T09:20:39.426Z,99788.03
2022-09-06T09:22:14.484Z,99782.91
2022-09-06T09:23:53.424Z,99782.91
2022-09-06T09:25:33.860Z,99783.16
2022-09-06T09:27:12.775Z,99783.63
2022-09-06T09:29:04.160Z,99783.25
2022-09-06T09:30:49.402Z,99777.06
2022-09-06T09:32:31.298Z,99775.97
2022-09-06T09:34:05.362Z,99782.34
2022-09-06T09:35:42.395Z,99777.31
2022-09-06T09:39:16.407Z,99772.72
2022-09-06T09:40:54.872Z,99777.56
2022-09-06T09:42:31.724Z,99775.72
2022-09-06T09:44:08.562Z,99780.13
2022-09-06T09:45:41.516Z,99775.63
2022-09-06T09:47:28.011Z,99754.09
2022-09-06T09:49:07.949Z,99760.13
2022-09-06T09:50:41.218Z,99761.06
2022-09-06T09:52:16.953Z,99750.25
2022-09-06T09:53:55.382Z,99751.22
2022-09-06T09:55:30.842Z,99759.69
2022-09-06T09:57:11.893Z,99761.25
2022-09-06T09:58:45.733Z,99747.31
2022-09-06T10:00:35.233Z,99745.09
2022-09-06T10:02:20.777Z,99749.66
2022-09-06T10:06:02.660Z,99752.50
2022-09-06T10:07:43.524Z,99756.06
2022-09-06T10:09:21.484Z,99744.19
2022-09-06T10:10:57.675Z,99740.66
2022-09-06T10:12:32.291Z,99738.63
2022-09-06T10:14:12.219Z,99737.59
2022-09-06T10:15:45.496Z,99735.84
2022-09-06T10:17:30.082Z,99737.19
2022-09-06T10:19:23.915Z,99722.69
2022-09-06T10:21:00.611Z,99729.22
2022-09-06T10:22:43.070Z,99720.09
2022-09-06T10:24:27.749Z,99718.41
2022-09-06T10:26:07.531Z,99721.75
2022-09-06T10:28:10.373Z,99714.31
2022-09-06T10:29:54.351Z,99722.94
2022-09-06T10:31:47.688Z,99712.28
2022-09-06T10:33:30.098Z,99720.88
2022-09-06T10:35:20.523Z,99704.00
2022-09-06T10:37:08.598Z,99712.56
2022-09-06T10:38:56.369Z,99709.31
2022-09-06T10:40:37.103Z,99705.34
2022-09-06T10:42:20.958Z,99702.16
2022-09-06T10:44:06.411Z,99701.97
2022-09-06T10:45:48.179Z,99697.88
2022-09-06T10:47:22.222Z,99695.41
2022-09-06T10:48:55.435Z,99692.56
2022-09-06T10:50:45.244Z,99682.34
2022-09-06T10:52:24.487Z,99695.56
2022-09-06T10:54:02.955Z,99680.88
2022-09-06T10:55:40.276Z,99690.28
2022-09-06T10:59:37.630Z,99687.72
2022-09-06T11:01:24.621Z,99685.94
2022-09-06T11:07:05.599Z,99676.38
2022-09-06T11:08:48.144Z,99677.25
2022-09-06T11:10:26.250Z,99667.84
2022-09-06T11:12:07.313Z,99673.13
2022-09-06T11:13:41.958Z,99667.50
2022-09-06T11:15:17.741Z,99657.56
2022-09-06T11:16:59.561Z,99666.09
2022-09-06T11:18:39.046Z,99663.41
2022-09-06T11:20:18.682Z,99670.66
2022-09-06T11:22:13.698Z,99664.56
2022-09-06T11:23:50.262Z,99667.66
2022-09-06T11:25:59.733Z,99671.56
2022-09-06T11:27:39.512Z,99665.81
2022-09-06T11:29:21.221Z,99670.63
2022-09-06T11:30:58.540Z,99671.34
2022-09-06T11:32:37.242Z,99664.88
2022-09-06T11:34:14.257Z,99662.22
2022-09-06T11:35:47.567Z,99651.63
2022-09-06T11:37:27.267Z,99660.81
2022-09-06T11:39:03.067Z,99657.94
2022-09-06T11:40:39.592Z,99649.00
2022-09-06T11:43:03.332Z,99652.59
2022-09-06T11:45:21.412Z,99644.22
2022-09-06T11:47:02.394Z,99647.97
2022-09-06T11:48:49.651Z,99652.00
2022-09-06T11:50:48.664Z,99645.53
2022-09-06T11:52:51.739Z,99646.78
2022-09-06T11:54:29.274Z,99641.19
2022-09-06T11:56:24.296Z,99643.84
2022-09-06T11:58:01.171Z,99633.66
2022-09-06T11:59:45.211Z,99634.81
2022-09-06T12:01:38.776Z,99636.84
2022-09-06T12:05:29.426Z,99638.34
2022-09-06T12:07:10.516Z,99638.34
2022-09-06T12:08:44.920Z,99648.09
2022-09-06T12:10:46.985Z,99631.59
2022-09-06T12:12:42.047Z,99630.19
2022-09-06T12:14:31.266Z,99628.88
2022-09-06T12:16:03.587Z,99628.88
2022-09-06T12:17:49.010Z,99622.53
2022-09-06T12:19:46.243Z,99620.59
2022-09-06T12:21:38.010Z,99621.75
2022-09-06T12:23:43.607Z,99621.84
2022-09-06T12:25:21.221Z,99620.88
2022-09-06T12:27:12.872Z,99609.41
2022-09-06T12:28:51.506Z,99618.50
2022-09-06T12:30:37.689Z,99618.81
2022-09-06T12:32:11.062Z,99617.44
2022-09-06T12:33:47.197Z,99611.19
2022-09-06T12:37:32.695Z,99607.94
2022-09-06T12:39:12.196Z,99608.38
2022-09-06T12:40:48.815Z,99604.66
2022-09-06T12:42:23.163Z,99599.81
2022-09-06T12:43:58.446Z,99606.97
2022-09-06T12:45:32.104Z,99609.25
2022-09-06T12:47:11.211Z,99593.88
2022-09-06T12:49:01.541Z,99601.88
2022-09-06T12:50:34.747Z,99597.72
2022-09-06T12:52:10.878Z,99589.97
2022-09-06T12:53:51.539Z,99596.50
2022-09-06T12:55:27.284Z,99592.72
2022-09-06T12:57:15.742Z,99590.56
2022-09-06T12:58:48.890Z,99590.38
2022-09-06T13:00:23.823Z,99588.03
2022-09-06T13:02:01.907Z,99582.47
2022-09-06T13:03:41.463Z,99593.84
2022-09-06T13:05:16.298Z,99588.44
2022-09-06T13:06:50.151Z,99588.91
2022-09-06T13:08:32.196Z,99587.66
2022-09-06T13:10:06.909Z,99587.66
2022-09-06T13:11:45.223Z,99585.91
2022-09-06T13:13:21.883Z,99590.66
2022-09-06T13:14:56.919Z,99580.78
2022-09-06T13:16:36.369Z,99574.34
2022-09-06T13:18:27.357Z,99577.88
2022-09-06T13:20:12.523Z,99582.59
2022-09-06T13:21:48.618Z,99576.00
2022-09-06T13:23:22.548Z,99583.31
2022-09-06T13:24:57.833Z,99582.69
2022-09-06T13:26:36.010Z,99564.69
2022-09-06T13:28:09.388Z,99580.53
2022-09-06T13:29:56.916Z,99581.72
2022-09-06T13:31:30.447Z,99578.66
2022-09-06T13:33:05.396Z,99576.94
2022-09-06T13:34:39.577Z,99572.38
2022-09-06T13:36:23.981Z,99569.09
2022-09-06T13:38:29.392Z,99562.72
2022-09-06T13:40:05.707Z,99569.31
2022-09-06T13:41:42.592Z,99563.47
2022-09-06T13:43:16.145Z,99574.56
2022-09-06T13:44:49.510Z,99562.00
2022-09-06T13:46:22.913Z,99567.13
2022-09-06T13:48:07.924Z,99573.63
2022-09-06T13:49:49.727Z,99573.63
2022-09-06T13:51:23.672Z,99571.63
2022-09-06T13:52:57.342Z,99559.66
2022-09-06T13:54:33.028Z,99562.06
2022-09-06T13:56:08.683Z,99564.16
2022-09-06T13:57:42.427Z,99561.03
2022-09-06T13:59:16.181Z,99558.47
2022-09-06T14:00:49.733Z,99562.19
2022-09-06T14:02:25.035Z,99553.03
2022-09-06T14:03:58.543Z,99549.63
2022-09-06T14:05:31.731Z,99545.16
2022-09-06T14:07:05.706Z,99544.75
2022-09-06T14:09:03.417Z,99545.47
2022-09-06T14:10:34.433Z,99542.75
2022-09-06T14:12:07.951Z,99539.41
2022-09-06T14:13:41.333Z,99537.41
2022-09-06T14:15:14.675Z,99547.09
2022-09-06T14:16:48.910Z,99531.63
2022-09-06T14:18:22.595Z,99534.84
2022-09-06T14:19:56.064Z,99539.53
2022-09-06T14:21:29.276Z,99537.13
2022-09-06T14:23:02.967Z,99533.81
2022-09-06T14:24:36.294Z,99533.53
2022-09-06T14:26:12.076Z,99533.22
2022-09-06T14:27:47.711Z,99538.66
2022-09-06T14:29:21.351Z,99534.25
2022-09-06T14:30:55.118Z,99529.19
2022-09-06T14:32:28.409Z,99532.94
2022-09-06T14:34:04.151Z,99534.09
2022-09-06T14:35:37.815Z,99529.34
2022-09-06T14:37:13.609Z,99535.66
2022-09-06T14:38:47.399Z,99527.13
2022-09-06T14:40:20.873Z,99534.53
2022-09-06T14:41:55.729Z,99522.66
2022-09-06T14:43:27.986Z,99522.66
2022-09-06T14:45:01.289Z,99524.69
2022-09-06T14:46:34.610Z,99530.13
2022-09-06T14:48:08.170Z,99533.72
2022-09-06T14:49:41.814Z,99527.31
2022-09-06T14:51:17.987Z,99524.53
2022-09-06T14:52:51.207Z,99525.97
2022-09-06T14:54:28.984Z,99522.25
2022-09-06T14:56:03.983Z,99521.78
2022-09-06T14:57:38.701Z,99527.06
2022-09-06T14:59:12.499Z,99528.81
2022-09-06T15:00:47.016Z,99522.66
2022-09-06T15:02:20.393Z,99519.25
2022-09-06T15:03:56.654Z,99514.81
2022-09-06T15:05:30.108Z,99517.44
2022-09-06T15:07:04.125Z,99520.72
2022-09-06T15:08:37.962Z,99512.03
2022-09-06T15:10:11.423Z,99524.06
2022-09-06T15:11:46.758Z,99525.22
2022-09-06T15:13:21.682Z,99523.66
2022-09-06T15:14:55.069Z,99516.66
2022-09-06T15:16:29.188Z,99518.97
2022-09-06T15:18:02.575Z,99518.81
2022-09-06T15:19:37.849Z,99511.97
2022-09-06T15:21:11.804Z,99517.81
2022-09-06T15:22:45.210Z,99516.25
2022-09-06T15:24:18.594Z,99520.13
2022-09-06T15:25:54.228Z,99520.41
2022-09-06T15:27:28.305Z,99514.25
2022-09-06T15:29:03.412Z,99521.84
2022-09-06T15:30:39.537Z,99525.00
2022-09-06T15:32:13.000Z,99528.72
2022-09-06T15:33:48.884Z,99529.31
2022-09-06T15:35:22.407Z,99526.16
2022-09-06T15:36:56.728Z,99523.03
2022-09-06T15:38:29.088Z,99520.63
2022-09-06T15:40:02.418Z,99527.31
2022-09-06T15:41:37.314Z,99533.31
2022-09-06T15:43:10.596Z,99523.03
2022-09-06T15:44:45.335Z,99524.34
2022-09-06T15:46:22.245Z,99520.22
2022-09-06T15:47:56.295Z,99522.50
2022-09-06T15:49:32.130Z,99531.94
2022-09-06T15:51:05.816Z,99526.78
2022-09-06T15:52:39.095Z,99523.38
2022-09-06T15:54:14.110Z,99530.94
2022-09-06T15:55:58.291Z,99515.41
2022-09-06T15:57:31.740Z,99525.38
2022-09-06T15:59:05.782Z,99515.97
2022-09-06T16:00:40.400Z,99527.50
2022-09-06T16:02:14.343Z,99530.19
2022-09-06T16:03:49.840Z,99529.50
2022-09-06T16:07:16.696Z,99528.06
2022-09-06T16:08:51.487Z,99513.38
2022-09-06T16:10:24.793Z,99522.50
2022-09-06T16:11:58.110Z,99518.50
2022-09-06T16:13:33.363Z,99511.47
2022-09-06T16:15:07.858Z,99512.75
2022-09-06T16:16:43.500Z,99517.91
2022-09-06T16:18:18.940Z,99520.75
2022-09-06T16:19:52.299Z,99521.31
2022-09-06T16:21:28.580Z,99513.47
2022-09-06T16:23:01.822Z,99509.06
2022-09-06T16:24:35.228Z,99505.91
2022-09-06T16:26:10.446Z,99511.91
2022-09-06T16:27:43.789Z,99506.75
2022-09-06T16:29:19.183Z,99521.56
2022-09-06T16:30:52.441Z,99509.59
2022-09-06T16:32:27.507Z,99513.78
2022-09-06T16:34:01.488Z,99514.19
2022-09-06T16:35:34.695Z,99509.19
2022-09-06T16:37:08.682Z,99505.19
2022-09-06T16:38:43.178Z,99505.75
2022-09-06T16:40:16.680Z,99497.19
2022-09-06T16:41:50.138Z,99511.13
2022-09-06T16:43:23.384Z,99502.81
2022-09-06T16:44:56.736Z,99511.94
2022-09-06T16:46:30.344Z,99506.22
2022-09-06T16:48:05.260Z,99505.31
2022-09-06T16:49:38.531Z,99505.72
2022-09-06T16:51:14.150Z,99505.47
2022-09-06T16:52:47.762Z,99510.56
2022-09-06T16:54:21.576Z,99512.81
2022-09-06T16:55:55.128Z,99508.94
2022-09-06T16:57:28.576Z,99509.47
2022-09-06T16:59:04.157Z,99511.59
2022-09-06T17:00:41.132Z,99517.25
2022-09-06T17:02:14.492Z,99514.53
2022-09-06T17:03:49.703Z,99519.50
2022-09-06T17:05:23.030Z,99527.97
2022-09-06T17:06:56.359Z,99529.22
2022-09-06T17:08:31.485Z,99537.00
2022-09-06T17:10:06.706Z,99538.50
2022-09-06T17:11:40.571Z,99534.47
2022-09-06T17:13:14.267Z,99540.97
2022-09-06T17:14:47.584Z,99541.22
2022-09-06T17:16:39.003Z,99543.41
2022-09-06T17:18:12.409Z,99540.00
2022-09-06T17:19:47.215Z,99544.06
2022-09-06T17:21:21.332Z,99541.00
2022-09-06T17:22:54.558Z,99541.03
2022-09-06T17:24:28.186Z,99542.03
2022-09-06T17:26:02.117Z,99552.97
2022-09-06T17:27:35.855Z,99565.41
2022-09-06T17:29:09.255Z,99556.53
2022-09-06T17:30:43.083Z,99561.91
2022-09-06T17:32:16.360Z,99569.75
2022-09-06T17:33:48.827Z,99581.25
2022-09-06T17:35:23.519Z,99576.38
2022-09-06T17:36:57.054Z,99574.91
2022-09-06T17:38:29.466Z,99573.66
2022-09-06T17:40:02.951Z,99576.69
2022-09-06T17:41:37.386Z,99570.72
2022-09-06T17:43:11.037Z,99581.94
2022-09-06T17:44:44.559Z,99587.78
2022-09-06T17:46:18.454Z,99583.63
2022-09-06T17:47:51.750Z,99588.50
2022-09-06T17:49:26.146Z,99588.22
2022-09-06T17:51:08.121Z,99592.13
2022-09-06T17:52:41.674Z,99587.94
2022-09-06T17:54:17.090Z,99589.88
2022-09-06T17:55:52.355Z,99600.16
2022-09-06T17:57:25.753Z,99596.94
2022-09-06T17:59:00.837Z,99597.41
2022-09-06T18:00:34.141Z,99600.56
2022-09-06T18:02:07.610Z,99607.25
2022-09-06T18:03:42.076Z,99601.47
2022-09-06T18:05:15.783Z,99605.38
2022-09-06T18:06:50.523Z,99611.94
2022-09-06T18:08:23.841Z,99608.00
2022-09-06T18:09:57.353Z,99618.47
2022-09-06T18:11:33.094Z,99616.19
2022-09-06T18:13:07.055Z,99621.16
2022-09-06T18:14:40.608Z,99613.63
2022-09-06T18:16:14.480Z,99619.69
2022-09-06T18:17:49.031Z,99621.81
2022-09-06T18:19:23.302Z,99623.22
2022-09-06T18:20:56.739Z,99625.09
2022-09-06T18:22:31.795Z,99623.03
2022-09-06T18:24:05.746Z,99640.44
2022-09-06T18:25:39.181Z,99622.59
2022-09-06T18:27:12.688Z,99636.91
2022-09-06T18:28:46.200Z,99631.31
2022-09-06T18:30:19.574Z,99627.00
2022-09-06T18:31:54.238Z,99632.50
2022-09-06T18:33:28.423Z,99632.72
2022-09-06T18:35:01.986Z,99626.59
2022-09-06T18:36:35.415Z,99630.25
2022-09-06T18:38:11.511Z,99639.50
2022-09-06T18:39:44.997Z,99644.84
2022-09-06T18:41:35.886Z,99645.06
2022-09-06T18:43:09.349Z,99639.44
2022-09-06T18:44:43.824Z,99648.00
2022-09-06T18:46:16.425Z,99639.41
2022-09-06T18:47:49.852Z,99644.56
2022-09-06T18:49:23.554Z,99644.31
2022-09-06T18:50:59.859Z,99641.50
2022-09-06T18:52:33.575Z,99647.69
2022-09-06T18:54:07.752Z,99646.38
2022-09-06T18:55:43.030Z,99653.66
2022-09-06T18:57:17.561Z,99649.25
2022-09-06T18:58:50.140Z,99648.28
2022-09-06T19:00:26.620Z,99643.13
2022-09-06T19:02:00.540Z,99641.41
2022-09-06T19:03:34.621Z,99648.72
2022-09-06T19:05:09.947Z,99654.84
2022-09-06T19:06:45.007Z,99656.00
2022-09-06T19:08:19.410Z,99649.16
2022-09-06T19:09:54.616Z,99650.81
2022-09-06T19:11:27.307Z,99650.72
2022-09-06T19:13:00.817Z,99648.63
2022-09-06T19:14:34.554Z,99658.59
2022-09-06T19:16:08.887Z,99653.59
2022-09-06T19:17:42.617Z,99660.03
2022-09-06T19:19:16.388Z,99654.66
2022-09-06T19:20:58.147Z,99650.38
2022-09-06T19:22:31.688Z,99659.38